sensor_id;sensor_type;location;lat;lon;timestamp;P1;durP1;ratioP1;P2;durP2;ratioP2
48945;SDS011;34999;50.940;3.998;2023-08-30T00:00:39;6.07;;;4.87;;
48945;SDS011;34999;50.940;3.998;2023-08-30T00:03:07;5.40;;;5.00;;
48945;SDS011;34999;50.940;3.998;2023-08-30T00:05:39;7.13;;;4.77;;
48945;SDS011;34999;50.940;3.998;2023-08-30T00:08:08;5.03;;;4.63;;
48945;SDS011;34999;50.940;3.998;2023-08-30T00:10:37;5.30;;;4.90;;
48945;SDS011;34999;50.940;3.998;2023-08-30T00:13:05;5.10;;;4.60;;
48945;SDS011;34999;50.940;3.998;2023-08-30T00:15:33;5.83;;;5.20;;
48945;SDS011;34999;50.940;3.998;2023-08-30T00:18:02;5.90;;;4.83;;
48945;SDS011;34999;50.940;3.998;2023-08-30T00:20:30;5.23;;;4.83;;
48945;SDS011;34999;50.940;3.998;2023-08-30T00:23:00;5.67;;;5.27;;
48945;SDS011;34999;50.940;3.998;2023-08-30T00:25:30;6.23;;;4.93;;
48945;SDS011;34999;50.940;3.998;2023-08-30T00:27:58;5.63;;;5.10;;
48945;SDS011;34999;50.940;3.998;2023-08-30T00:30:26;5.43;;;4.93;;
48945;SDS011;34999;50.940;3.998;2023-08-30T00:32:55;5.37;;;4.93;;
48945;SDS011;34999;50.940;3.998;2023-08-30T00:35:23;5.63;;;5.10;;
48945;SDS011;34999;50.940;3.998;2023-08-30T00:37:51;6.43;;;5.47;;
48945;SDS011;34999;50.940;3.998;2023-08-30T00:40:23;6.07;;;5.47;;
48945;SDS011;34999;50.940;3.998;2023-08-30T00:42:52;5.90;;;5.40;;
48945;SDS011;34999;50.940;3.998;2023-08-30T00:45:21;6.50;;;5.77;;
48945;SDS011;34999;50.940;3.998;2023-08-30T00:47:49;6.43;;;5.50;;
48945;SDS011;34999;50.940;3.998;2023-08-30T00:50:17;7.13;;;5.47;;
48945;SDS011;34999;50.940;3.998;2023-08-30T00:52:46;6.77;;;5.67;;
48945;SDS011;34999;50.940;3.998;2023-08-30T00:55:14;7.80;;;5.93;;
48945;SDS011;34999;50.940;3.998;2023-08-30T00:57:44;7.77;;;5.80;;
48945;SDS011;34999;50.940;3.998;2023-08-30T01:00:15;6.50;;;5.43;;
48945;SDS011;34999;50.940;3.998;2023-08-30T01:02:44;6.77;;;5.97;;
48945;SDS011;34999;50.940;3.998;2023-08-30T01:05:12;7.30;;;5.47;;
48945;SDS011;34999;50.940;3.998;2023-08-30T01:07:42;6.50;;;5.90;;
48945;SDS011;34999;50.940;3.998;2023-08-30T01:10:10;10.80;;;5.67;;
48945;SDS011;34999;50.940;3.998;2023-08-30T01:12:39;8.63;;;6.07;;
48945;SDS011;34999;50.940;3.998;2023-08-30T01:15:13;5.87;;;5.30;;
48945;SDS011;34999;50.940;3.998;2023-08-30T01:17:46;9.93;;;5.90;;
48945;SDS011;34999;50.940;3.998;2023-08-30T01:20:16;7.90;;;6.40;;
48945;SDS011;34999;50.940;3.998;2023-08-30T01:22:57;7.13;;;6.27;;
48945;SDS011;34999;50.940;3.998;2023-08-30T01:25:31;7.60;;;6.23;;
48945;SDS011;34999;50.940;3.998;2023-08-30T01:28:06;10.17;;;6.50;;
48945;SDS011;34999;50.940;3.998;2023-08-30T01:30:37;7.60;;;6.67;;
48945;SDS011;34999;50.940;3.998;2023-08-30T01:33:09;8.40;;;6.23;;
48945;SDS011;34999;50.940;3.998;2023-08-30T01:35:39;8.37;;;6.77;;
48945;SDS011;34999;50.940;3.998;2023-08-30T01:38:08;9.13;;;6.53;;
48945;SDS011;34999;50.940;3.998;2023-08-30T01:40:38;14.90;;;6.90;;
48945;SDS011;34999;50.940;3.998;2023-08-30T01:43:11;11.83;;;6.80;;
48945;SDS011;34999;50.940;3.998;2023-08-30T01:45:41;10.03;;;6.90;;
48945;SDS011;34999;50.940;3.998;2023-08-30T01:48:12;9.40;;;7.23;;
48945;SDS011;34999;50.940;3.998;2023-08-30T01:50:42;7.07;;;6.30;;
48945;SDS011;34999;50.940;3.998;2023-08-30T01:53:12;8.70;;;6.90;;
48945;SDS011;34999;50.940;3.998;2023-08-30T01:55:42;12.97;;;7.60;;
48945;SDS011;34999;50.940;3.998;2023-08-30T01:58:12;7.87;;;6.90;;
48945;SDS011;34999;50.940;3.998;2023-08-30T02:00:40;9.23;;;6.83;;
48945;SDS011;34999;50.940;3.998;2023-08-30T02:03:09;8.07;;;6.30;;
48945;SDS011;34999;50.940;3.998;2023-08-30T02:05:39;8.93;;;7.30;;
48945;SDS011;34999;50.940;3.998;2023-08-30T02:08:15;9.53;;;6.70;;
48945;SDS011;34999;50.940;3.998;2023-08-30T02:10:47;9.10;;;6.90;;
48945;SDS011;34999;50.940;3.998;2023-08-30T02:13:25;9.00;;;7.30;;
48945;SDS011;34999;50.940;3.998;2023-08-30T02:15:54;9.60;;;7.23;;
48945;SDS011;34999;50.940;3.998;2023-08-30T02:18:24;11.17;;;7.33;;
48945;SDS011;34999;50.940;3.998;2023-08-30T02:20:53;8.77;;;6.83;;
48945;SDS011;34999;50.940;3.998;2023-08-30T02:23:23;8.73;;;7.10;;
48945;SDS011;34999;50.940;3.998;2023-08-30T02:25:53;10.63;;;6.67;;
48945;SDS011;34999;50.940;3.998;2023-08-30T02:28:23;8.30;;;6.57;;
48945;SDS011;34999;50.940;3.998;2023-08-30T02:30:52;7.43;;;6.73;;
48945;SDS011;34999;50.940;3.998;2023-08-30T02:33:21;8.00;;;6.93;;
48945;SDS011;34999;50.940;3.998;2023-08-30T02:35:49;10.53;;;7.23;;
48945;SDS011;34999;50.940;3.998;2023-08-30T02:38:18;8.93;;;6.97;;
48945;SDS011;34999;50.940;3.998;2023-08-30T02:40:46;8.87;;;6.60;;
48945;SDS011;34999;50.940;3.998;2023-08-30T02:43:14;10.83;;;6.90;;
48945;SDS011;34999;50.940;3.998;2023-08-30T02:45:44;9.37;;;6.87;;
48945;SDS011;34999;50.940;3.998;2023-08-30T02:48:12;7.13;;;6.33;;
48945;SDS011;34999;50.940;3.998;2023-08-30T02:50:41;10.00;;;6.97;;
48945;SDS011;34999;50.940;3.998;2023-08-30T02:53:09;7.23;;;5.73;;
48945;SDS011;34999;50.940;3.998;2023-08-30T02:55:38;10.43;;;6.60;;
48945;SDS011;34999;50.940;3.998;2023-08-30T02:58:06;9.57;;;6.53;;
48945;SDS011;34999;50.940;3.998;2023-08-30T03:00:35;8.33;;;6.83;;
48945;SDS011;34999;50.940;3.998;2023-08-30T03:03:05;8.57;;;6.80;;
48945;SDS011;34999;50.940;3.998;2023-08-30T03:05:33;7.17;;;6.40;;
48945;SDS011;34999;50.940;3.998;2023-08-30T03:08:02;8.43;;;6.40;;
48945;SDS011;34999;50.940;3.998;2023-08-30T03:10:30;7.80;;;6.10;;
48945;SDS011;34999;50.940;3.998;2023-08-30T03:12:59;9.03;;;6.53;;
48945;SDS011;34999;50.940;3.998;2023-08-30T03:15:27;7.90;;;6.23;;
48945;SDS011;34999;50.940;3.998;2023-08-30T03:17:59;9.90;;;6.73;;
48945;SDS011;34999;50.940;3.998;2023-08-30T03:20:29;12.30;;;6.63;;
48945;SDS011;34999;50.940;3.998;2023-08-30T03:22:57;8.20;;;6.53;;
48945;SDS011;34999;50.940;3.998;2023-08-30T03:25:28;7.70;;;6.07;;
48945;SDS011;34999;50.940;3.998;2023-08-30T03:27:57;7.87;;;6.20;;
48945;SDS011;34999;50.940;3.998;2023-08-30T03:30:25;7.00;;;6.20;;
48945;SDS011;34999;50.940;3.998;2023-08-30T03:32:53;7.90;;;6.60;;
48945;SDS011;34999;50.940;3.998;2023-08-30T03:35:22;6.70;;;6.00;;
48945;SDS011;34999;50.940;3.998;2023-08-30T03:37:51;10.43;;;6.50;;
48945;SDS011;34999;50.940;3.998;2023-08-30T03:40:20;8.30;;;6.63;;
48945;SDS011;34999;50.940;3.998;2023-08-30T03:42:49;11.30;;;6.53;;
48945;SDS011;34999;50.940;3.998;2023-08-30T03:45:17;10.90;;;6.63;;
48945;SDS011;34999;50.940;3.998;2023-08-30T03:47:45;11.80;;;6.70;;
48945;SDS011;34999;50.940;3.998;2023-08-30T03:50:14;9.50;;;6.60;;
48945;SDS011;34999;50.940;3.998;2023-08-30T03:52:42;11.73;;;6.93;;
48945;SDS011;34999;50.940;3.998;2023-08-30T03:55:12;11.03;;;7.23;;
48945;SDS011;34999;50.940;3.998;2023-08-30T03:57:40;10.57;;;7.10;;
48945;SDS011;34999;50.940;3.998;2023-08-30T04:00:09;10.57;;;7.67;;
48945;SDS011;34999;50.940;3.998;2023-08-30T04:02:38;12.00;;;8.10;;
48945;SDS011;34999;50.940;3.998;2023-08-30T04:05:07;11.33;;;7.87;;
48945;SDS011;34999;50.940;3.998;2023-08-30T04:07:35;11.40;;;7.60;;
48945;SDS011;34999;50.940;3.998;2023-08-30T04:10:04;14.47;;;8.03;;
48945;SDS011;34999;50.940;3.998;2023-08-30T04:12:35;15.87;;;7.63;;
48945;SDS011;34999;50.940;3.998;2023-08-30T04:15:03;15.07;;;8.30;;
48945;SDS011;34999;50.940;3.998;2023-08-30T04:17:32;15.10;;;7.93;;
48945;SDS011;34999;50.940;3.998;2023-08-30T04:20:00;12.03;;;8.10;;
48945;SDS011;34999;50.940;3.998;2023-08-30T04:22:30;10.10;;;7.73;;
48945;SDS011;34999;50.940;3.998;2023-08-30T04:25:01;15.57;;;8.67;;
48945;SDS011;34999;50.940;3.998;2023-08-30T04:27:31;11.20;;;8.03;;
48945;SDS011;34999;50.940;3.998;2023-08-30T04:30:00;17.47;;;8.80;;
48945;SDS011;34999;50.940;3.998;2023-08-30T04:32:29;13.73;;;8.27;;
48945;SDS011;34999;50.940;3.998;2023-08-30T04:34:57;9.63;;;7.93;;
48945;SDS011;34999;50.940;3.998;2023-08-30T04:37:29;14.53;;;8.53;;
48945;SDS011;34999;50.940;3.998;2023-08-30T04:39:58;14.57;;;9.47;;
48945;SDS011;34999;50.940;3.998;2023-08-30T04:42:27;15.17;;;9.13;;
48945;SDS011;34999;50.940;3.998;2023-08-30T04:44:55;12.17;;;9.23;;
48945;SDS011;34999;50.940;3.998;2023-08-30T04:47:29;18.03;;;9.23;;
48945;SDS011;34999;50.940;3.998;2023-08-30T04:49:58;15.47;;;9.73;;
48945;SDS011;34999;50.940;3.998;2023-08-30T04:52:27;11.80;;;9.33;;
48945;SDS011;34999;50.940;3.998;2023-08-30T04:54:55;14.20;;;9.00;;
48945;SDS011;34999;50.940;3.998;2023-08-30T04:57:23;9.83;;;8.57;;
48945;SDS011;34999;50.940;3.998;2023-08-30T04:59:51;14.00;;;9.80;;
48945;SDS011;34999;50.940;3.998;2023-08-30T05:02:19;14.30;;;9.67;;
48945;SDS011;34999;50.940;3.998;2023-08-30T05:04:49;15.27;;;10.20;;
48945;SDS011;34999;50.940;3.998;2023-08-30T05:07:17;15.73;;;9.97;;
48945;SDS011;34999;50.940;3.998;2023-08-30T05:09:46;12.20;;;10.00;;
48945;SDS011;34999;50.940;3.998;2023-08-30T05:12:14;14.30;;;10.60;;
48945;SDS011;34999;50.940;3.998;2023-08-30T05:14:42;12.23;;;9.80;;
48945;SDS011;34999;50.940;3.998;2023-08-30T05:17:11;17.33;;;10.70;;
48945;SDS011;34999;50.940;3.998;2023-08-30T05:19:39;13.00;;;9.63;;
48945;SDS011;34999;50.940;3.998;2023-08-30T05:22:09;16.73;;;9.70;;
48945;SDS011;34999;50.940;3.998;2023-08-30T05:24:37;13.67;;;9.77;;
48945;SDS011;34999;50.940;3.998;2023-08-30T05:27:07;13.90;;;10.00;;
48945;SDS011;34999;50.940;3.998;2023-08-30T05:29:37;13.53;;;10.37;;
48945;SDS011;34999;50.940;3.998;2023-08-30T05:32:06;14.10;;;10.40;;
48945;SDS011;34999;50.940;3.998;2023-08-30T05:34:34;13.97;;;10.37;;
48945;SDS011;34999;50.940;3.998;2023-08-30T05:37:02;14.27;;;10.87;;
48945;SDS011;34999;50.940;3.998;2023-08-30T05:39:32;16.53;;;10.47;;
48945;SDS011;34999;50.940;3.998;2023-08-30T05:42:01;16.43;;;11.50;;
48945;SDS011;34999;50.940;3.998;2023-08-30T05:44:30;17.23;;;12.07;;
48945;SDS011;34999;50.940;3.998;2023-08-30T05:46:58;18.00;;;11.33;;
48945;SDS011;34999;50.940;3.998;2023-08-30T05:49:27;17.03;;;11.53;;
48945;SDS011;34999;50.940;3.998;2023-08-30T05:51:55;22.53;;;12.53;;
48945;SDS011;34999;50.940;3.998;2023-08-30T05:54:23;19.93;;;12.30;;
48945;SDS011;34999;50.940;3.998;2023-08-30T05:56:54;17.10;;;11.63;;
48945;SDS011;34999;50.940;3.998;2023-08-30T05:59:23;15.20;;;11.37;;
48945;SDS011;34999;50.940;3.998;2023-08-30T06:01:51;15.07;;;11.87;;
48945;SDS011;34999;50.940;3.998;2023-08-30T06:04:19;20.87;;;12.53;;
48945;SDS011;34999;50.940;3.998;2023-08-30T06:06:47;20.27;;;12.93;;
48945;SDS011;34999;50.940;3.998;2023-08-30T06:09:16;20.40;;;12.73;;
48945;SDS011;34999;50.940;3.998;2023-08-30T06:11:44;26.17;;;12.93;;
48945;SDS011;34999;50.940;3.998;2023-08-30T06:14:14;23.93;;;12.27;;
48945;SDS011;34999;50.940;3.998;2023-08-30T06:16:42;21.40;;;12.33;;
48945;SDS011;34999;50.940;3.998;2023-08-30T06:19:11;18.27;;;11.97;;
48945;SDS011;34999;50.940;3.998;2023-08-30T06:21:39;22.03;;;12.03;;
48945;SDS011;34999;50.940;3.998;2023-08-30T06:24:07;19.47;;;11.50;;
48945;SDS011;34999;50.940;3.998;2023-08-30T06:26:36;18.17;;;11.60;;
48945;SDS011;34999;50.940;3.998;2023-08-30T06:29:04;17.53;;;11.63;;
48945;SDS011;34999;50.940;3.998;2023-08-30T06:31:34;16.43;;;10.67;;
48945;SDS011;34999;50.940;3.998;2023-08-30T06:34:02;17.73;;;10.77;;
48945;SDS011;34999;50.940;3.998;2023-08-30T06:36:31;16.80;;;10.30;;
48945;SDS011;34999;50.940;3.998;2023-08-30T06:38:59;18.03;;;10.03;;
48945;SDS011;34999;50.940;3.998;2023-08-30T06:41:27;19.97;;;9.60;;
48945;SDS011;34999;50.940;3.998;2023-08-30T06:43:56;15.03;;;8.90;;
48945;SDS011;34999;50.940;3.998;2023-08-30T06:46:24;16.20;;;9.83;;
48945;SDS011;34999;50.940;3.998;2023-08-30T06:48:54;15.07;;;10.37;;
48945;SDS011;34999;50.940;3.998;2023-08-30T06:51:22;17.07;;;9.90;;
48945;SDS011;34999;50.940;3.998;2023-08-30T06:53:51;15.97;;;10.70;;
48945;SDS011;34999;50.940;3.998;2023-08-30T06:56:22;13.83;;;9.83;;
48945;SDS011;34999;50.940;3.998;2023-08-30T06:58:50;15.37;;;9.97;;
48945;SDS011;34999;50.940;3.998;2023-08-30T07:01:18;15.93;;;10.10;;
48945;SDS011;34999;50.940;3.998;2023-08-30T07:03:46;12.47;;;9.10;;
48945;SDS011;34999;50.940;3.998;2023-08-30T07:06:16;17.13;;;9.43;;
48945;SDS011;34999;50.940;3.998;2023-08-30T07:08:44;16.17;;;8.90;;
48945;SDS011;34999;50.940;3.998;2023-08-30T07:11:13;11.40;;;8.43;;
48945;SDS011;34999;50.940;3.998;2023-08-30T07:13:58;13.27;;;8.23;;
48945;SDS011;34999;50.940;3.998;2023-08-30T07:16:26;13.70;;;8.60;;
48945;SDS011;34999;50.940;3.998;2023-08-30T07:18:55;13.20;;;8.60;;
48945;SDS011;34999;50.940;3.998;2023-08-30T07:21:25;13.33;;;9.20;;
48945;SDS011;34999;50.940;3.998;2023-08-30T07:23:53;11.53;;;8.60;;
48945;SDS011;34999;50.940;3.998;2023-08-30T07:26:22;13.67;;;8.40;;
48945;SDS011;34999;50.940;3.998;2023-08-30T07:28:50;13.30;;;8.70;;
48945;SDS011;34999;50.940;3.998;2023-08-30T07:31:18;14.17;;;9.03;;
48945;SDS011;34999;50.940;3.998;2023-08-30T07:33:48;14.43;;;8.80;;
48945;SDS011;34999;50.940;3.998;2023-08-30T07:36:16;13.60;;;8.90;;
48945;SDS011;34999;50.940;3.998;2023-08-30T07:38:47;13.33;;;9.20;;
48945;SDS011;34999;50.940;3.998;2023-08-30T07:41:15;14.53;;;9.57;;
48945;SDS011;34999;50.940;3.998;2023-08-30T07:43:43;15.97;;;9.73;;
48945;SDS011;34999;50.940;3.998;2023-08-30T07:46:12;15.23;;;10.10;;
48945;SDS011;34999;50.940;3.998;2023-08-30T07:48:40;15.93;;;10.23;;
48945;SDS011;34999;50.940;3.998;2023-08-30T07:51:08;16.73;;;11.00;;
48945;SDS011;34999;50.940;3.998;2023-08-30T07:53:36;14.50;;;10.30;;
48945;SDS011;34999;50.940;3.998;2023-08-30T07:56:06;14.83;;;10.53;;
48945;SDS011;34999;50.940;3.998;2023-08-30T07:58:35;13.10;;;10.07;;
48945;SDS011;34999;50.940;3.998;2023-08-30T08:01:03;15.43;;;9.87;;
48945;SDS011;34999;50.940;3.998;2023-08-30T08:03:31;13.60;;;9.23;;
48945;SDS011;34999;50.940;3.998;2023-08-30T08:05:59;12.83;;;10.17;;
48945;SDS011;34999;50.940;3.998;2023-08-30T08:08:28;11.87;;;9.77;;
48945;SDS011;34999;50.940;3.998;2023-08-30T08:10:58;9.70;;;8.70;;
48945;SDS011;34999;50.940;3.998;2023-08-30T08:13:28;14.30;;;10.30;;
48945;SDS011;34999;50.940;3.998;2023-08-30T08:15:56;12.33;;;10.03;;
48945;SDS011;34999;50.940;3.998;2023-08-30T08:18:25;11.27;;;9.73;;
48945;SDS011;34999;50.940;3.998;2023-08-30T08:20:53;11.07;;;9.87;;
48945;SDS011;34999;50.940;3.998;2023-08-30T08:23:22;11.13;;;9.27;;
48945;SDS011;34999;50.940;3.998;2023-08-30T08:25:56;13.00;;;10.23;;
48945;SDS011;34999;50.940;3.998;2023-08-30T08:28:25;16.13;;;11.03;;
48945;SDS011;34999;50.940;3.998;2023-08-30T08:30:55;11.03;;;9.87;;
48945;SDS011;34999;50.940;3.998;2023-08-30T08:33:23;12.17;;;10.07;;
48945;SDS011;34999;50.940;3.998;2023-08-30T08:35:51;11.40;;;9.27;;
48945;SDS011;34999;50.940;3.998;2023-08-30T08:38:20;11.13;;;9.93;;
48945;SDS011;34999;50.940;3.998;2023-08-30T08:40:48;11.73;;;8.57;;
48945;SDS011;34999;50.940;3.998;2023-08-30T08:43:19;10.60;;;8.50;;
48945;SDS011;34999;50.940;3.998;2023-08-30T08:45:48;9.40;;;8.40;;
48945;SDS011;34999;50.940;3.998;2023-08-30T08:48:19;9.27;;;8.37;;
48945;SDS011;34999;50.940;3.998;2023-08-30T08:50:48;7.93;;;7.23;;
48945;SDS011;34999;50.940;3.998;2023-08-30T08:53:17;9.33;;;7.30;;
48945;SDS011;34999;50.940;3.998;2023-08-30T08:55:45;8.17;;;7.37;;
48945;SDS011;34999;50.940;3.998;2023-08-30T08:58:14;7.00;;;6.40;;
48945;SDS011;34999;50.940;3.998;2023-08-30T09:00:43;6.57;;;5.90;;
48945;SDS011;34999;50.940;3.998;2023-08-30T09:03:12;12.23;;;6.60;;
48945;SDS011;34999;50.940;3.998;2023-08-30T09:05:43;7.07;;;6.37;;
48945;SDS011;34999;50.940;3.998;2023-08-30T09:08:13;6.37;;;5.73;;
48945;SDS011;34999;50.940;3.998;2023-08-30T09:10:43;7.03;;;6.33;;
48945;SDS011;34999;50.940;3.998;2023-08-30T09:13:11;7.33;;;6.67;;
48945;SDS011;34999;50.940;3.998;2023-08-30T09:15:40;8.33;;;6.77;;
48945;SDS011;34999;50.940;3.998;2023-08-30T09:18:14;9.20;;;7.30;;
48945;SDS011;34999;50.940;3.998;2023-08-30T09:20:45;7.70;;;7.00;;
48945;SDS011;34999;50.940;3.998;2023-08-30T09:23:16;8.47;;;7.53;;
48945;SDS011;34999;50.940;3.998;2023-08-30T09:25:46;9.43;;;7.63;;
48945;SDS011;34999;50.940;3.998;2023-08-30T09:28:21;9.53;;;7.60;;
48945;SDS011;34999;50.940;3.998;2023-08-30T09:30:50;12.77;;;7.67;;
48945;SDS011;34999;50.940;3.998;2023-08-30T09:33:20;11.03;;;7.73;;
48945;SDS011;34999;50.940;3.998;2023-08-30T09:35:50;11.13;;;7.70;;
48945;SDS011;34999;50.940;3.998;2023-08-30T09:38:19;7.00;;;6.13;;
48945;SDS011;34999;50.940;3.998;2023-08-30T09:40:47;7.73;;;6.90;;
48945;SDS011;34999;50.940;3.998;2023-08-30T09:43:18;7.77;;;6.93;;
48945;SDS011;34999;50.940;3.998;2023-08-30T09:45:48;9.37;;;6.50;;
48945;SDS011;34999;50.940;3.998;2023-08-30T09:48:20;6.30;;;5.57;;
48945;SDS011;34999;50.940;3.998;2023-08-30T09:50:51;10.17;;;4.77;;
48945;SDS011;34999;50.940;3.998;2023-08-30T09:53:21;5.03;;;4.40;;
48945;SDS011;34999;50.940;3.998;2023-08-30T09:55:54;8.80;;;4.43;;
48945;SDS011;34999;50.940;3.998;2023-08-30T09:58:23;6.23;;;3.90;;
48945;SDS011;34999;50.940;3.998;2023-08-30T10:00:54;4.43;;;3.40;;
48945;SDS011;34999;50.940;3.998;2023-08-30T10:03:23;7.17;;;3.77;;
48945;SDS011;34999;50.940;3.998;2023-08-30T10:05:59;4.13;;;3.27;;
48945;SDS011;34999;50.940;3.998;2023-08-30T10:08:32;5.10;;;3.23;;
48945;SDS011;34999;50.940;3.998;2023-08-30T10:11:03;5.27;;;3.97;;
48945;SDS011;34999;50.940;3.998;2023-08-30T10:13:33;3.73;;;3.30;;
48945;SDS011;34999;50.940;3.998;2023-08-30T10:16:06;6.43;;;3.70;;
48945;SDS011;34999;50.940;3.998;2023-08-30T10:18:36;4.73;;;3.47;;
48945;SDS011;34999;50.940;3.998;2023-08-30T10:21:18;5.90;;;3.00;;
48945;SDS011;34999;50.940;3.998;2023-08-30T10:23:48;5.33;;;3.00;;
48945;SDS011;34999;50.940;3.998;2023-08-30T10:26:22;3.70;;;2.20;;
48945;SDS011;34999;50.940;3.998;2023-08-30T10:28:51;6.80;;;2.80;;
48945;SDS011;34999;50.940;3.998;2023-08-30T10:31:22;4.73;;;2.10;;
48945;SDS011;34999;50.940;3.998;2023-08-30T10:33:54;4.67;;;2.63;;
48945;SDS011;34999;50.940;3.998;2023-08-30T10:36:24;4.00;;;2.40;;
48945;SDS011;34999;50.940;3.998;2023-08-30T10:38:53;4.67;;;2.43;;
48945;SDS011;34999;50.940;3.998;2023-08-30T10:41:23;6.20;;;2.47;;
48945;SDS011;34999;50.940;3.998;2023-08-30T10:43:52;4.60;;;2.37;;
48945;SDS011;34999;50.940;3.998;2023-08-30T10:46:30;3.33;;;2.20;;
48945;SDS011;34999;50.940;3.998;2023-08-30T10:49:08;5.07;;;2.70;;
48945;SDS011;34999;50.940;3.998;2023-08-30T10:51:39;5.87;;;2.67;;
48945;SDS011;34999;50.940;3.998;2023-08-30T10:54:11;8.37;;;2.60;;
48945;SDS011;34999;50.940;3.998;2023-08-30T10:56:46;8.07;;;2.87;;
48945;SDS011;34999;50.940;3.998;2023-08-30T10:59:16;9.53;;;2.50;;
48945;SDS011;34999;50.940;3.998;2023-08-30T11:01:45;5.47;;;2.33;;
48945;SDS011;34999;50.940;3.998;2023-08-30T11:04:15;4.57;;;2.70;;
48945;SDS011;34999;50.940;3.998;2023-08-30T11:06:46;6.03;;;2.40;;
48945;SDS011;34999;50.940;3.998;2023-08-30T11:09:16;3.90;;;2.00;;
48945;SDS011;34999;50.940;3.998;2023-08-30T11:11:45;7.60;;;2.83;;
48945;SDS011;34999;50.940;3.998;2023-08-30T11:14:14;6.93;;;2.73;;
48945;SDS011;34999;50.940;3.998;2023-08-30T11:16:44;5.80;;;2.57;;
48945;SDS011;34999;50.940;3.998;2023-08-30T11:19:12;7.50;;;2.37;;
48945;SDS011;34999;50.940;3.998;2023-08-30T11:21:42;3.57;;;2.17;;
48945;SDS011;34999;50.940;3.998;2023-08-30T11:24:14;5.33;;;2.10;;
48945;SDS011;34999;50.940;3.998;2023-08-30T11:26:43;5.63;;;2.40;;
48945;SDS011;34999;50.940;3.998;2023-08-30T11:29:12;5.30;;;2.07;;
48945;SDS011;34999;50.940;3.998;2023-08-30T11:31:40;5.40;;;2.67;;
48945;SDS011;34999;50.940;3.998;2023-08-30T11:34:12;10.90;;;2.30;;
48945;SDS011;34999;50.940;3.998;2023-08-30T11:36:40;3.80;;;1.90;;
48945;SDS011;34999;50.940;3.998;2023-08-30T11:39:09;4.93;;;2.20;;
48945;SDS011;34999;50.940;3.998;2023-08-30T11:41:39;5.33;;;2.07;;
48945;SDS011;34999;50.940;3.998;2023-08-30T11:44:07;5.67;;;2.30;;
48945;SDS011;34999;50.940;3.998;2023-08-30T11:46:36;3.23;;;1.87;;
48945;SDS011;34999;50.940;3.998;2023-08-30T11:49:04;5.13;;;2.20;;
48945;SDS011;34999;50.940;3.998;2023-08-30T11:51:33;3.70;;;2.30;;
48945;SDS011;34999;50.940;3.998;2023-08-30T11:54:01;4.50;;;2.13;;
48945;SDS011;34999;50.940;3.998;2023-08-30T11:56:30;4.40;;;2.40;;
48945;SDS011;34999;50.940;3.998;2023-08-30T11:59:00;4.30;;;1.93;;
48945;SDS011;34999;50.940;3.998;2023-08-30T12:01:29;7.00;;;2.30;;
48945;SDS011;34999;50.940;3.998;2023-08-30T12:03:57;8.67;;;2.13;;
48945;SDS011;34999;50.940;3.998;2023-08-30T12:06:25;3.87;;;1.93;;
48945;SDS011;34999;50.940;3.998;2023-08-30T12:08:57;3.67;;;1.90;;
48945;SDS011;34999;50.940;3.998;2023-08-30T12:11:25;5.43;;;1.90;;
48945;SDS011;34999;50.940;3.998;2023-08-30T12:14:02;3.50;;;1.80;;
48945;SDS011;34999;50.940;3.998;2023-08-30T12:16:31;5.27;;;2.30;;
48945;SDS011;34999;50.940;3.998;2023-08-30T12:19:07;6.33;;;1.87;;
48945;SDS011;34999;50.940;3.998;2023-08-30T12:21:39;4.13;;;1.70;;
48945;SDS011;34999;50.940;3.998;2023-08-30T12:24:08;4.17;;;1.90;;
48945;SDS011;34999;50.940;3.998;2023-08-30T12:26:36;5.77;;;2.03;;
48945;SDS011;34999;50.940;3.998;2023-08-30T12:29:06;4.90;;;1.50;;
48945;SDS011;34999;50.940;3.998;2023-08-30T12:31:34;5.07;;;1.97;;
48945;SDS011;34999;50.940;3.998;2023-08-30T12:34:04;6.00;;;1.80;;
48945;SDS011;34999;50.940;3.998;2023-08-30T12:36:32;6.17;;;1.70;;
48945;SDS011;34999;50.940;3.998;2023-08-30T12:39:00;3.07;;;1.73;;
48945;SDS011;34999;50.940;3.998;2023-08-30T12:41:30;3.00;;;1.97;;
48945;SDS011;34999;50.940;3.998;2023-08-30T12:43:59;2.47;;;1.80;;
48945;SDS011;34999;50.940;3.998;2023-08-30T12:46:32;3.93;;;1.90;;
48945;SDS011;34999;50.940;3.998;2023-08-30T12:49:00;3.70;;;1.63;;
48945;SDS011;34999;50.940;3.998;2023-08-30T12:51:29;2.37;;;1.43;;
48945;SDS011;34999;50.940;3.998;2023-08-30T12:53:57;2.90;;;1.30;;
48945;SDS011;34999;50.940;3.998;2023-08-30T12:56:25;2.00;;;1.60;;
48945;SDS011;34999;50.940;3.998;2023-08-30T12:58:53;3.10;;;1.60;;
48945;SDS011;34999;50.940;3.998;2023-08-30T13:01:22;4.13;;;1.53;;
48945;SDS011;34999;50.940;3.998;2023-08-30T13:03:52;4.90;;;1.90;;
48945;SDS011;34999;50.940;3.998;2023-08-30T13:06:20;3.00;;;1.60;;
48945;SDS011;34999;50.940;3.998;2023-08-30T13:08:49;3.30;;;1.63;;
48945;SDS011;34999;50.940;3.998;2023-08-30T13:11:17;4.37;;;1.87;;
48945;SDS011;34999;50.940;3.998;2023-08-30T13:13:45;5.53;;;1.60;;
48945;SDS011;34999;50.940;3.998;2023-08-30T13:16:14;2.53;;;1.63;;
48945;SDS011;34999;50.940;3.998;2023-08-30T13:18:43;2.43;;;1.70;;
48945;SDS011;34999;50.940;3.998;2023-08-30T13:21:12;5.57;;;1.80;;
48945;SDS011;34999;50.940;3.998;2023-08-30T13:23:47;3.17;;;1.80;;
48945;SDS011;34999;50.940;3.998;2023-08-30T13:26:15;6.43;;;2.00;;
48945;SDS011;34999;50.940;3.998;2023-08-30T13:28:44;4.87;;;1.60;;
48945;SDS011;34999;50.940;3.998;2023-08-30T13:31:12;2.23;;;1.70;;
48945;SDS011;34999;50.940;3.998;2023-08-30T13:33:42;4.47;;;2.10;;
48945;SDS011;34999;50.940;3.998;2023-08-30T13:36:10;4.63;;;1.93;;
48945;SDS011;34999;50.940;3.998;2023-08-30T13:38:40;4.37;;;1.80;;
48945;SDS011;34999;50.940;3.998;2023-08-30T13:41:09;2.60;;;1.47;;
48945;SDS011;34999;50.940;3.998;2023-08-30T13:43:37;2.57;;;1.47;;
48945;SDS011;34999;50.940;3.998;2023-08-30T13:46:05;2.47;;;1.60;;
48945;SDS011;34999;50.940;3.998;2023-08-30T13:48:34;3.03;;;1.53;;
48945;SDS011;34999;50.940;3.998;2023-08-30T13:51:02;3.37;;;1.50;;
48945;SDS011;34999;50.940;3.998;2023-08-30T13:53:32;3.57;;;1.47;;
48945;SDS011;34999;50.940;3.998;2023-08-30T13:56:00;1.53;;;1.30;;
48945;SDS011;34999;50.940;3.998;2023-08-30T13:58:28;3.37;;;1.50;;
48945;SDS011;34999;50.940;3.998;2023-08-30T14:00:56;2.30;;;1.27;;
48945;SDS011;34999;50.940;3.998;2023-08-30T14:03:25;2.43;;;1.33;;
48945;SDS011;34999;50.940;3.998;2023-08-30T14:05:53;1.53;;;1.30;;
48945;SDS011;34999;50.940;3.998;2023-08-30T14:08:21;3.93;;;1.50;;
48945;SDS011;34999;50.940;3.998;2023-08-30T14:10:51;2.53;;;1.20;;
48945;SDS011;34999;50.940;3.998;2023-08-30T14:13:20;1.90;;;1.30;;
48945;SDS011;34999;50.940;3.998;2023-08-30T14:15:49;3.57;;;1.33;;
48945;SDS011;34999;50.940;3.998;2023-08-30T14:18:17;2.47;;;1.40;;
48945;SDS011;34999;50.940;3.998;2023-08-30T14:20:45;3.23;;;1.47;;
48945;SDS011;34999;50.940;3.998;2023-08-30T14:23:14;2.37;;;1.27;;
48945;SDS011;34999;50.940;3.998;2023-08-30T14:25:43;4.40;;;1.37;;
48945;SDS011;34999;50.940;3.998;2023-08-30T14:28:13;2.20;;;1.57;;
48945;SDS011;34999;50.940;3.998;2023-08-30T14:30:42;4.00;;;1.57;;
48945;SDS011;34999;50.940;3.998;2023-08-30T14:33:10;2.70;;;1.50;;
48945;SDS011;34999;50.940;3.998;2023-08-30T14:35:40;3.90;;;1.60;;
48945;SDS011;34999;50.940;3.998;2023-08-30T14:38:09;1.43;;;1.27;;
48945;SDS011;34999;50.940;3.998;2023-08-30T14:40:38;5.40;;;1.70;;
48945;SDS011;34999;50.940;3.998;2023-08-30T14:43:06;7.53;;;1.60;;
48945;SDS011;34999;50.940;3.998;2023-08-30T14:45:36;2.23;;;1.50;;
48945;SDS011;34999;50.940;3.998;2023-08-30T14:48:05;1.20;;;1.10;;
48945;SDS011;34999;50.940;3.998;2023-08-30T14:50:35;2.37;;;1.43;;
48945;SDS011;34999;50.940;3.998;2023-08-30T14:53:03;2.60;;;1.40;;